createdAt,value
2023-05-05T00:02:35.085Z,22.77
2023-05-05T00:07:38.267Z,22.76
2023-05-05T00:12:42.823Z,22.76
2023-05-05T00:17:46.435Z,22.76
2023-05-05T00:22:49.588Z,22.76
2023-05-05T00:27:54.148Z,22.75
2023-05-05T00:32:57.472Z,22.76
2023-05-05T00:38:00.701Z,22.75
2023-05-05T00:43:05.281Z,22.75
2023-05-05T00:48:08.774Z,22.74
2023-05-05T00:53:13.075Z,22.73
2023-05-05T00:58:17.628Z,22.72
2023-05-05T01:03:20.612Z,22.72
2023-05-05T01:08:37.236Z,22.73
2023-05-05T01:13:55.534Z,22.71
2023-05-05T01:19:02.138Z,22.71
2023-05-05T01:24:28.261Z,22.71
2023-05-05T01:29:51.866Z,22.72
2023-05-05T01:34:59.840Z,22.70
2023-05-05T01:40:08.167Z,22.71
2023-05-05T01:45:13.952Z,22.69
2023-05-05T01:50:19.010Z,22.69
2023-05-05T01:55:23.225Z,22.69
2023-05-05T02:00:27.001Z,22.68
2023-05-05T02:05:33.368Z,22.66
2023-05-05T02:10:37.337Z,22.67
2023-05-05T02:15:41.082Z,22.67
2023-05-05T02:20:46.673Z,22.66
2023-05-05T02:25:51.460Z,22.66
2023-05-05T02:30:57.523Z,22.65
2023-05-05T02:36:08.110Z,22.64
2023-05-05T02:41:14.838Z,22.65
2023-05-05T02:46:18.761Z,22.65
2023-05-05T02:51:22.904Z,22.64
2023-05-05T02:56:35.434Z,22.63
2023-05-05T03:01:46.447Z,22.63
2023-05-05T03:06:52.220Z,22.61
2023-05-05T03:12:01.007Z,22.61
2023-05-05T03:17:04.805Z,22.61
2023-05-05T03:22:09.446Z,22.60
2023-05-05T03:27:12.374Z,22.59
2023-05-05T03:32:15.515Z,22.58
2023-05-05T03:37:19.728Z,22.58
2023-05-05T03:42:22.510Z,22.57
2023-05-05T03:47:25.694Z,22.57
2023-05-05T03:52:30.327Z,22.57
2023-05-05T03:57:36.107Z,22.56
2023-05-05T04:02:39.042Z,22.54
2023-05-05T04:07:43.259Z,22.55
2023-05-05T04:12:46.281Z,22.54
2023-05-05T04:17:49.145Z,22.54
2023-05-05T04:22:53.451Z,22.53
2023-05-05T04:27:56.420Z,22.52
2023-05-05T04:32:59.332Z,22.53
2023-05-05T04:38:03.688Z,22.52
2023-05-05T04:43:07.474Z,22.51
2023-05-05T04:48:10.386Z,22.51
2023-05-05T04:53:14.610Z,22.52
2023-05-05T04:58:17.487Z,22.52
2023-05-05T05:03:20.333Z,22.52
2023-05-05T05:08:24.524Z,22.53
2023-05-05T05:13:27.352Z,22.54
2023-05-05T05:18:30.289Z,22.53
2023-05-05T05:23:34.540Z,22.55
2023-05-05T05:28:37.391Z,22.54
2023-05-05T05:33:40.288Z,22.56
2023-05-05T05:38:44.494Z,22.56
2023-05-05T05:43:50.269Z,22.57
2023-05-05T05:48:53.086Z,22.58
2023-05-05T05:53:58.747Z,22.60
2023-05-05T05:59:04.567Z,22.60
2023-05-05T06:04:07.621Z,22.61
2023-05-05T06:09:11.936Z,22.62
2023-05-05T06:14:14.825Z,22.62
2023-05-05T06:19:17.878Z,22.63
2023-05-05T06:24:22.101Z,22.63
2023-05-05T06:29:24.958Z,22.64
2023-05-05T06:34:27.830Z,22.65
2023-05-05T06:39:31.991Z,22.66
2023-05-05T06:44:36.454Z,22.67
2023-05-05T06:49:39.263Z,22.67
2023-05-05T06:54:44.764Z,22.67
2023-05-05T06:59:47.537Z,22.66
2023-05-05T07:04:50.981Z,22.67
2023-05-05T07:09:55.153Z,22.71
2023-05-05T07:14:58.091Z,22.75
2023-05-05T07:20:00.885Z,22.70
2023-05-05T07:25:06.081Z,22.72
2023-05-05T07:30:14.085Z,22.80
2023-05-05T07:35:18.408Z,22.89
2023-05-05T07:40:22.746Z,22.88
2023-05-05T07:45:25.560Z,22.97
2023-05-05T07:50:28.441Z,23.09
2023-05-05T07:55:32.647Z,23.25
2023-05-05T08:00:35.624Z,23.08
2023-05-05T08:05:39.220Z,23.03
2023-05-05T08:10:43.422Z,23.05
2023-05-05T08:15:46.260Z,23.04
2023-05-05T08:20:49.067Z,22.99
2023-05-05T08:25:53.328Z,23.12
2023-05-05T08:30:56.223Z,23.25
2023-05-05T08:35:59.234Z,23.26
2023-05-05T08:41:03.975Z,23.11
2023-05-05T08:46:07.399Z,23.22
2023-05-05T08:51:10.982Z,23.36
2023-05-05T08:56:15.994Z,23.46
2023-05-05T09:01:19.370Z,23.57
2023-05-05T09:06:23.391Z,23.54
2023-05-05T09:11:29.101Z,23.39
2023-05-05T09:16:32.139Z,23.62
2023-05-05T09:21:35.136Z,23.78
2023-05-05T09:26:40.486Z,23.81
2023-05-05T09:31:43.459Z,23.74
2023-05-05T09:36:48.145Z,23.55
2023-05-05T09:41:52.331Z,23.68
2023-05-05T09:46:58.218Z,23.81
2023-05-05T09:52:12.920Z,23.80
2023-05-05T09:57:31.666Z,23.92
2023-05-05T10:02:36.153Z,23.83
2023-05-05T10:07:40.011Z,23.90
2023-05-05T10:12:44.428Z,23.91
2023-05-05T10:18:05.322Z,23.94
2023-05-05T10:23:11.934Z,23.93
2023-05-05T10:28:22.218Z,24.00
2023-05-05T10:33:36.284Z,24.03
2023-05-05T10:38:39.369Z,23.98
2023-05-05T10:43:43.759Z,24.04
2023-05-05T10:48:51.039Z,24.12
2023-05-05T10:53:58.182Z,23.96
2023-05-05T10:59:02.342Z,23.88
2023-05-05T11:04:18.506Z,23.83
2023-05-05T11:09:28.492Z,23.79
2023-05-05T11:14:32.674Z,23.77
2023-05-05T11:19:48.557Z,23.80
2023-05-05T11:24:51.458Z,23.83
2023-05-05T11:30:10.625Z,23.78
2023-05-05T11:35:14.247Z,23.78
2023-05-05T11:40:22.867Z,23.77
2023-05-05T11:45:27.071Z,23.78
2023-05-05T11:50:34.158Z,23.75
2023-05-05T11:55:37.026Z,23.74
2023-05-05T12:00:41.200Z,23.72
2023-05-05T12:05:44.141Z,23.70
2023-05-05T12:10:47.084Z,23.74
2023-05-05T12:15:51.636Z,23.72
2023-05-05T12:20:54.814Z,23.74
2023-05-05T12:25:57.644Z,23.71
2023-05-05T12:31:02.364Z,23.71
2023-05-05T12:36:05.654Z,23.74
2023-05-05T12:41:08.506Z,23.70
2023-05-05T12:46:13.422Z,23.76
2023-05-05T12:51:20.748Z,23.79
2023-05-05T12:56:30.463Z,23.78
2023-05-05T13:01:36.640Z,23.80
2023-05-05T13:06:40.066Z,23.79
2023-05-05T13:11:42.923Z,23.77
2023-05-05T13:16:47.188Z,23.79
2023-05-05T13:21:50.186Z,23.80
2023-05-05T13:26:53.263Z,23.82
2023-05-05T13:31:57.397Z,23.87
2023-05-05T13:37:00.190Z,23.91
2023-05-05T13:42:03.006Z,23.95
2023-05-05T13:47:07.390Z,23.96
2023-05-05T13:52:10.431Z,24.00
2023-05-05T13:57:13.432Z,24.06
2023-05-05T14:02:17.653Z,24.14
2023-05-05T14:07:21.616Z,24.13
2023-05-05T14:12:24.677Z,24.15
2023-05-05T14:17:28.869Z,24.22
2023-05-05T14:22:34.373Z,24.37
2023-05-05T14:27:37.280Z,24.55
2023-05-05T14:32:41.606Z,24.64
2023-05-05T14:37:44.667Z,24.75
2023-05-05T14:42:47.713Z,24.87
2023-05-05T14:47:51.958Z,25.03
2023-05-05T14:52:54.777Z,25.17
2023-05-05T14:57:57.627Z,25.32
2023-05-05T15:03:01.965Z,25.42
2023-05-05T15:08:04.943Z,25.51
2023-05-05T15:13:07.952Z,25.70
2023-05-05T15:18:12.253Z,25.70
2023-05-05T15:23:15.363Z,25.55
2023-05-05T15:28:18.663Z,25.47
2023-05-05T15:33:22.815Z,25.40
2023-05-05T15:38:25.750Z,25.32
2023-05-05T15:43:28.711Z,25.24
2023-05-05T15:48:35.018Z,25.77
2023-05-05T15:53:38.743Z,25.98
2023-05-05T15:58:41.595Z,25.83
2023-05-05T16:03:45.991Z,25.80
2023-05-05T16:08:51.617Z,26.57
2023-05-05T16:13:54.687Z,27.29
2023-05-05T16:18:58.865Z,28.70
2023-05-05T16:24:01.645Z,29.66
2023-05-05T16:29:04.483Z,29.30
2023-05-05T16:34:08.623Z,27.56
2023-05-05T16:39:11.968Z,27.08
2023-05-05T16:44:15.709Z,29.53
2023-05-05T16:49:19.865Z,29.47
2023-05-05T16:54:23.129Z,29.33
2023-05-05T16:59:25.989Z,28.50
2023-05-05T17:04:30.116Z,28.27
2023-05-05T17:09:32.946Z,27.16
2023-05-05T17:14:35.869Z,26.77
2023-05-05T17:19:40.007Z,26.79
2023-05-05T17:24:43.075Z,26.34
2023-05-05T17:29:45.925Z,26.06
2023-05-05T17:34:50.471Z,25.88
2023-05-05T17:39:53.409Z,25.77
2023-05-05T17:44:57.515Z,25.58
2023-05-05T17:50:01.888Z,25.47
2023-05-05T17:55:06.319Z,25.43
2023-05-05T18:00:10.175Z,25.30
2023-05-05T18:05:15.219Z,25.21
2023-05-05T18:10:18.086Z,25.13
2023-05-05T18:15:20.935Z,25.04
2023-05-05T18:20:25.154Z,24.96
2023-05-05T18:25:28.044Z,24.89
2023-05-05T18:30:31.049Z,24.82
2023-05-05T18:35:35.599Z,24.72
2023-05-05T18:40:38.720Z,24.65
2023-05-05T18:45:41.795Z,24.62
2023-05-05T18:50:46.786Z,24.55
2023-05-05T18:55:50.751Z,24.50
2023-05-05T19:00:53.580Z,24.49
2023-05-05T19:05:57.750Z,24.44
2023-05-05T19:11:00.642Z,24.40
2023-05-05T19:16:03.644Z,24.36
2023-05-05T19:21:07.965Z,24.32
2023-05-05T19:26:11.578Z,24.31
2023-05-05T19:31:14.421Z,24.27
2023-05-05T19:36:19.277Z,24.22
2023-05-05T19:41:22.120Z,24.21
2023-05-05T19:46:26.314Z,24.19
2023-05-05T19:51:31.523Z,24.17
2023-05-05T19:56:34.343Z,24.15
2023-05-05T20:01:37.308Z,24.11
2023-05-05T20:06:41.818Z,24.09
2023-05-05T20:16:47.959Z,24.05
2023-05-05T20:21:52.355Z,24.01
2023-05-05T20:26:55.190Z,23.99
2023-05-05T20:31:58.630Z,23.99
2023-05-05T20:37:02.867Z,23.97
2023-05-05T20:42:05.901Z,23.94
2023-05-05T20:47:08.886Z,23.93
2023-05-05T20:52:13.236Z,23.90
2023-05-05T20:57:16.118Z,23.92
2023-05-05T21:02:19.060Z,23.90
2023-05-05T21:07:24.384Z,23.87
2023-05-05T21:12:28.044Z,23.87
2023-05-05T21:17:31.310Z,23.86
2023-05-05T21:22:35.588Z,23.84
2023-05-05T21:27:38.403Z,23.82
2023-05-05T21:32:41.592Z,23.82
2023-05-05T21:37:45.756Z,23.80
2023-05-05T21:42:49.915Z,23.79
2023-05-05T21:47:52.868Z,23.79
2023-05-05T21:52:57.111Z,23.78
2023-05-05T21:57:59.959Z,23.77
2023-05-05T22:03:03.357Z,23.75
2023-05-05T22:08:07.597Z,23.74
2023-05-05T22:13:11.013Z,23.72
2023-05-05T22:18:13.972Z,23.73
2023-05-05T22:23:18.159Z,23.70
2023-05-05T22:28:21.816Z,23.71
2023-05-05T22:33:24.761Z,23.70
2023-05-05T22:38:28.981Z,23.68
2023-05-05T22:43:31.815Z,23.68
2023-05-05T22:48:34.610Z,23.67
2023-05-05T22:53:39.511Z,23.67
2023-05-05T22:58:42.323Z,23.65
2023-05-05T23:03:45.166Z,23.65
2023-05-05T23:08:49.724Z,23.64
2023-05-05T23:13:52.553Z,23.62
2023-05-05T23:18:55.340Z,23.61
2023-05-05T23:23:59.475Z,23.61
2023-05-05T23:29:02.262Z,23.60
2023-05-05T23:34:05.121Z,23.59
2023-05-05T23:39:09.321Z,23.60
2023-05-05T23:44:12.139Z,23.58
2023-05-05T23:49:16.114Z,23.57
2023-05-05T23:54:20.267Z,23.56
2023-05-05T23:59:23.173Z,23.56
